Time;durP1;ratioP1;P1;durP2;ratioP2;P2;SDS_P1;SDS_P2;PMS_P1;PMS_P2;Temp;Humidity;BMP_temperature;BMP_pressure;BME280_temperature;BME280_humidity;BME280_pressure;Samples;Min_cycle;Max_cycle;Signal;HPM_P1;HPM_P2
2023/09/01 00:00:43;;;;;;;5.57;2.20;;;14.00;99.90;;;;;;5114298;28;20111;-72
2023/09/01 00:03:09;;;;;;;3.35;1.98;;;14.00;99.90;;;;;;5114155;28;20035;-72
2023/09/01 00:05:36;;;;;;;4.75;2.20;;;13.90;99.90;;;;;;5114572;28;20024;-72
2023/09/01 00:08:02;;;;;;;5.22;2.20;;;13.90;99.90;;;;;;5114274;28;20030;-72
2023/09/01 00:10:28;;;;;;;3.05;2.10;;;13.90;99.90;;;;;;5114063;28;20035;-72
2023/09/01 00:12:54;;;;;;;3.80;2.33;;;13.90;99.90;;;;;;5114150;28;20027;-72
2023/09/01 00:15:20;;;;;;;4.18;2.35;;;13.90;99.90;;;;;;5114387;28;20031;-72
2023/09/01 00:17:45;;;;;;;2.67;2.13;;;13.90;99.90;;;;;;5095913;28;20437;-72
2023/09/01 00:20:11;;;;;;;3.65;2.10;;;13.90;99.90;;;;;;5113992;28;20066;-72
2023/09/01 00:22:37;;;;;;;3.92;2.67;;;13.80;99.90;;;;;;5114248;28;20031;-72
2023/09/01 00:25:03;;;;;;;4.22;2.40;;;13.80;99.90;;;;;;5114003;28;20063;-72
2023/09/01 00:27:29;;;;;;;5.72;3.20;;;13.80;99.90;;;;;;5114200;28;20095;-72
2023/09/01 00:29:54;;;;;;;7.68;4.28;;;13.80;99.90;;;;;;5095666;28;20055;-72
2023/09/01 00:32:20;;;;;;;6.95;3.88;;;13.80;99.90;;;;;;5114553;28;20024;-72
2023/09/01 00:34:46;;;;;;;5.68;3.80;;;13.80;99.90;;;;;;5113958;28;20559;-72
2023/09/01 00:37:11;;;;;;;6.80;3.65;;;13.70;99.90;;;;;;5113963;28;20361;-72
2023/09/01 00:39:37;;;;;;;5.10;3.28;;;13.70;99.90;;;;;;5113824;28;20027;-72
2023/09/01 00:42:03;;;;;;;5.40;2.80;;;13.70;99.90;;;;;;5113697;28;20399;-72
2023/09/01 00:44:29;;;;;;;5.55;2.15;;;13.80;99.90;;;;;;5113841;28;20035;-72
2023/09/01 00:46:54;;;;;;;3.22;1.95;;;13.80;99.90;;;;;;5113871;28;20023;-72
2023/09/01 00:49:20;;;;;;;5.07;3.10;;;13.80;99.90;;;;;;5113800;28;20422;-72
2023/09/01 00:51:47;;;;;;;3.90;2.05;;;13.80;99.90;;;;;;5113640;28;20042;-72
2023/09/01 00:54:14;;;;;;;3.22;2.03;;;13.70;99.90;;;;;;5113659;28;20496;-72
2023/09/01 00:56:41;;;;;;;3.92;2.20;;;13.60;99.90;;;;;;5113994;28;20088;-72
2023/09/01 00:59:07;;;;;;;5.18;2.50;;;13.60;99.90;;;;;;5113679;28;20028;-72
2023/09/01 01:01:33;;;;;;;4.65;2.70;;;13.50;99.90;;;;;;5113494;28;20110;-72
2023/09/01 01:04:00;;;;;;;5.30;2.72;;;13.50;99.90;;;;;;5113605;28;20047;-72
2023/09/01 01:06:29;;;;;;;5.57;3.10;;;13.60;99.90;;;;;;5110080;28;20023;-74
2023/09/01 01:09:18;;;;;;;7.28;3.60;;;13.50;99.90;;;;;;5093336;28;20020;-72
2023/09/01 01:11:46;;;;;;;4.80;2.83;;;13.60;99.90;;;;;;5086341;28;20036;-72
2023/09/01 01:14:21;;;;;;;4.18;2.65;;;13.50;99.90;;;;;;5099077;28;20077;-72
2023/09/01 01:16:48;;;;;;;4.93;2.78;;;13.40;99.90;;;;;;5084182;28;20114;-72
2023/09/01 01:19:50;;;;;;;4.18;2.10;;;13.30;99.90;;;;;;5112617;28;20031;-72
2023/09/01 01:22:32;;;;;;;3.50;2.38;;;13.30;99.90;;;;;;5070870;28;20062;-73
2023/09/01 01:24:58;;;;;;;5.85;2.60;;;13.30;99.90;;;;;;5112020;28;20464;-72
2023/09/01 01:27:23;;;;;;;5.32;2.60;;;13.20;99.90;;;;;;5108989;28;20058;-72
2023/09/01 01:29:49;;;;;;;5.43;2.53;;;13.20;99.90;;;;;;5111363;28;20024;-72
2023/09/01 01:32:15;;;;;;;7.93;2.40;;;13.20;99.90;;;;;;5098348;28;20030;-72
2023/09/01 01:34:49;;;;;;;5.05;2.17;;;13.20;99.90;;;;;;5116713;28;20107;-72
2023/09/01 01:37:28;;;;;;;4.10;2.20;;;13.20;99.90;;;;;;5111141;28;20033;-72
2023/09/01 01:39:56;;;;;;;4.68;2.50;;;13.10;99.90;;;;;;5109635;28;20016;-73
2023/09/01 01:42:23;;;;;;;4.55;2.50;;;13.10;99.90;;;;;;5114796;28;20031;-73
2023/09/01 01:44:50;;;;;;;3.50;2.25;;;13.00;99.90;;;;;;5114887;28;20027;-74
2023/09/01 01:47:17;;;;;;;4.47;2.35;;;13.00;99.90;;;;;;5114824;28;20015;-73
2023/09/01 01:49:43;;;;;;;3.75;2.75;;;13.00;99.90;;;;;;5115117;28;20027;-73
2023/09/01 01:52:08;;;;;;;3.75;2.15;;;13.00;99.90;;;;;;5116866;28;20384;-72
2023/09/01 01:54:34;;;;;;;3.63;2.13;;;13.00;99.90;;;;;;5116992;28;20510;-72
2023/09/01 01:57:00;;;;;;;3.42;2.03;;;13.10;99.90;;;;;;5117014;28;20027;-72
2023/09/01 01:59:26;;;;;;;3.40;1.98;;;13.20;99.90;;;;;;5116728;28;20397;-72
2023/09/01 02:01:52;;;;;;;3.08;2.05;;;13.20;99.90;;;;;;5098484;28;20020;-72
2023/09/01 02:04:17;;;;;;;3.80;2.40;;;13.20;99.90;;;;;;5116856;28;20028;-72
2023/09/01 02:06:43;;;;;;;4.68;3.22;;;13.30;99.90;;;;;;5116874;28;20020;-72
2023/09/01 02:09:09;;;;;;;5.50;2.65;;;13.20;99.90;;;;;;5098426;28;20035;-72
2023/09/01 02:11:38;;;;;;;4.28;2.65;;;13.20;99.90;;;;;;5116413;28;20028;-72
2023/09/01 02:14:05;;;;;;;3.33;2.35;;;13.10;99.90;;;;;;5116482;28;20156;-72
2023/09/01 02:16:31;;;;;;;4.05;2.50;;;13.00;99.90;;;;;;5116341;28;20055;-73
2023/09/01 02:18:58;;;;;;;4.85;2.40;;;13.00;99.90;;;;;;5116333;28;20031;-72
2023/09/01 02:21:24;;;;;;;3.47;2.70;;;13.00;99.90;;;;;;5116238;28;20024;-73
2023/09/01 02:23:50;;;;;;;4.05;2.42;;;13.00;99.90;;;;;;5116241;28;20023;-72
2023/09/01 02:26:19;;;;;;;4.00;2.40;;;13.10;99.90;;;;;;5116512;28;20024;-72
2023/09/01 02:28:45;;;;;;;5.30;2.28;;;13.10;99.90;;;;;;5116221;28;20365;-72
2023/09/01 02:31:11;;;;;;;4.13;2.38;;;13.10;99.90;;;;;;5116474;28;20072;-72
2023/09/01 02:33:37;;;;;;;3.03;2.20;;;13.20;99.90;;;;;;5116358;28;20043;-72
2023/09/01 02:36:20;;;;;;;4.38;2.60;;;13.20;99.90;;;;;;5115995;28;20036;-72
2023/09/01 02:38:46;;;;;;;3.38;2.20;;;13.10;99.90;;;;;;5115911;28;20106;-73
2023/09/01 02:41:12;;;;;;;3.10;2.15;;;13.20;99.90;;;;;;5097368;28;20063;-73
2023/09/01 02:43:37;;;;;;;4.25;2.95;;;13.20;99.90;;;;;;5115402;28;20072;-72
2023/09/01 02:46:04;;;;;;;3.45;2.30;;;13.10;99.90;;;;;;5115852;28;20031;-72
2023/09/01 02:48:30;;;;;;;4.28;2.30;;;13.10;99.90;;;;;;5115728;28;20024;-72
2023/09/01 02:50:58;;;;;;;3.00;1.98;;;13.10;99.90;;;;;;5115624;28;20538;-72
2023/09/01 02:53:24;;;;;;;3.75;2.33;;;13.10;99.90;;;;;;5115591;28;20076;-72
2023/09/01 02:55:50;;;;;;;4.13;2.30;;;13.10;99.90;;;;;;5097531;28;20031;-73
2023/09/01 02:58:16;;;;;;;3.90;2.08;;;13.10;99.90;;;;;;5115657;28;20102;-72
2023/09/01 03:00:44;;;;;;;3.70;2.38;;;13.10;99.90;;;;;;5115493;28;20024;-73
2023/09/01 03:03:10;;;;;;;3.38;2.08;;;13.20;99.90;;;;;;5115650;28;20027;-72
2023/09/01 03:05:36;;;;;;;3.25;2.45;;;13.20;99.90;;;;;;5097155;28;20024;-72
2023/09/01 03:08:03;;;;;;;4.10;2.25;;;13.20;99.90;;;;;;5115320;28;20504;-72
2023/09/01 03:10:29;;;;;;;4.28;2.45;;;13.20;99.90;;;;;;5115246;28;20022;-72
2023/09/01 03:12:54;;;;;;;3.38;2.42;;;13.20;99.90;;;;;;5115886;28;20434;-72
2023/09/01 03:15:21;;;;;;;4.25;2.30;;;13.10;99.90;;;;;;5115253;28;20061;-72
2023/09/01 03:17:46;;;;;;;4.53;2.50;;;13.00;99.90;;;;;;5115370;28;20110;-72
2023/09/01 03:20:12;;;;;;;3.45;2.28;;;13.00;99.90;;;;;;5115103;28;20535;-72
2023/09/01 03:22:38;;;;;;;3.40;2.17;;;13.00;99.90;;;;;;5096734;28;20373;-72
2023/09/01 03:25:10;;;;;;;3.00;1.90;;;13.00;99.90;;;;;;5097286;28;20377;-72
2023/09/01 03:27:39;;;;;;;3.15;2.22;;;13.00;99.90;;;;;;5115917;28;20432;-73
2023/09/01 03:30:06;;;;;;;3.58;2.38;;;13.00;99.90;;;;;;5115230;28;20016;-73
2023/09/01 03:32:33;;;;;;;4.68;2.75;;;13.00;99.90;;;;;;5114991;28;20111;-72
2023/09/01 03:35:02;;;;;;;3.63;2.10;;;13.00;99.90;;;;;;5115360;28;20068;-72
2023/09/01 03:37:28;;;;;;;3.70;2.10;;;12.90;99.90;;;;;;5114738;28;20076;-73
2023/09/01 03:39:54;;;;;;;3.60;2.17;;;12.80;99.90;;;;;;5114925;28;20031;-73
2023/09/01 03:42:19;;;;;;;2.83;1.85;;;12.80;99.90;;;;;;5114659;28;20024;-73
2023/09/01 03:44:45;;;;;;;5.13;2.33;;;12.70;99.90;;;;;;5114643;28;20024;-72
2023/09/01 03:47:12;;;;;;;4.22;2.08;;;12.60;99.90;;;;;;5096081;28;20058;-72
2023/09/01 03:49:38;;;;;;;3.40;2.30;;;12.50;99.90;;;;;;5114871;28;20023;-72
2023/09/01 03:52:04;;;;;;;3.75;2.20;;;12.40;99.90;;;;;;5096117;28;20027;-72
2023/09/01 03:54:30;;;;;;;4.88;2.67;;;12.30;99.90;;;;;;5114075;28;20042;-72
2023/09/01 03:56:56;;;;;;;3.85;2.40;;;12.30;99.90;;;;;;5096268;28;20031;-72
2023/09/01 03:59:22;;;;;;;4.30;2.50;;;12.20;99.90;;;;;;5114517;28;20139;-72
2023/09/01 04:01:47;;;;;;;4.32;2.42;;;12.20;99.90;;;;;;5114288;28;20031;-73
2023/09/01 04:04:14;;;;;;;3.72;2.40;;;12.20;99.90;;;;;;5096181;28;20391;-73
2023/09/01 04:06:40;;;;;;;3.10;2.10;;;12.10;99.90;;;;;;5114333;28;20028;-72
2023/09/01 04:09:07;;;;;;;3.63;2.42;;;12.10;99.90;;;;;;5114283;28;20020;-73
2023/09/01 04:11:34;;;;;;;4.65;2.60;;;12.00;99.90;;;;;;5095832;28;20032;-72
2023/09/01 04:14:00;;;;;;;5.85;2.80;;;12.00;99.90;;;;;;5114163;28;20088;-72
2023/09/01 04:16:26;;;;;;;3.90;2.80;;;12.00;99.90;;;;;;5114610;28;20020;-74
2023/09/01 04:18:53;;;;;;;4.97;3.03;;;12.00;99.90;;;;;;5114090;28;20024;-74
2023/09/01 04:21:19;;;;;;;3.78;2.50;;;12.00;99.90;;;;;;5114259;28;20035;-74
2023/09/01 04:23:45;;;;;;;4.78;2.53;;;12.10;99.90;;;;;;5113996;28;20024;-74
2023/09/01 04:26:12;;;;;;;4.00;2.42;;;12.10;99.90;;;;;;5114032;28;20027;-74
2023/09/01 04:28:38;;;;;;;4.43;2.42;;;12.20;99.90;;;;;;5113934;28;20023;-74
2023/09/01 04:31:24;;;;;;;3.63;2.45;;;12.20;99.90;;;;;;5114180;28;20031;-74
2023/09/01 04:33:50;;;;;;;5.43;2.67;;;12.20;99.90;;;;;;5114268;28;20487;-74
2023/09/01 04:36:16;;;;;;;3.55;2.40;;;12.20;99.90;;;;;;5113927;28;20098;-74
2023/09/01 04:38:42;;;;;;;3.70;2.42;;;12.20;99.90;;;;;;5113828;28;20032;-74
2023/09/01 04:41:07;;;;;;;4.07;2.40;;;12.20;99.90;;;;;;5113802;28;20035;-74
2023/09/01 04:43:33;;;;;;;5.10;2.53;;;12.20;99.90;;;;;;5113764;28;20383;-74
2023/09/01 04:45:59;;;;;;;4.20;2.67;;;12.10;99.90;;;;;;5095635;28;20088;-74
2023/09/01 04:48:26;;;;;;;5.65;2.90;;;12.10;99.90;;;;;;5113875;28;20023;-74
2023/09/01 04:50:51;;;;;;;3.30;2.30;;;12.10;99.90;;;;;;5113723;28;20046;-74
2023/09/01 04:53:18;;;;;;;3.58;2.53;;;12.20;99.90;;;;;;5113825;28;20059;-74
2023/09/01 04:55:43;;;;;;;4.78;2.75;;;12.30;99.90;;;;;;5113743;28;20024;-74
2023/09/01 04:58:09;;;;;;;3.38;2.40;;;12.30;99.90;;;;;;5095605;28;20024;-74
2023/09/01 05:00:35;;;;;;;6.25;2.72;;;12.30;99.90;;;;;;5113661;28;20037;-74
2023/09/01 05:03:01;;;;;;;3.72;2.38;;;12.20;99.90;;;;;;5113562;28;20031;-74
2023/09/01 05:05:27;;;;;;;3.28;2.50;;;12.20;99.90;;;;;;5114401;28;20031;-74
2023/09/01 05:07:53;;;;;;;4.15;2.40;;;12.20;99.90;;;;;;5117714;28;20380;-73
2023/09/01 05:10:19;;;;;;;3.58;2.28;;;12.20;99.90;;;;;;5117331;28;20027;-74
2023/09/01 05:12:44;;;;;;;4.18;2.75;;;12.20;99.90;;;;;;5117534;28;20043;-74
2023/09/01 05:15:11;;;;;;;4.07;2.60;;;12.30;99.90;;;;;;5099362;28;20391;-74
2023/09/01 05:17:37;;;;;;;3.55;2.30;;;12.30;99.90;;;;;;5099207;28;20024;-74
2023/09/01 05:20:07;;;;;;;3.38;2.30;;;12.40;99.90;;;;;;5117423;28;20036;-74
2023/09/01 05:22:33;;;;;;;3.72;2.58;;;12.40;99.90;;;;;;5117754;28;20028;-74
2023/09/01 05:24:59;;;;;;;4.10;2.67;;;12.50;99.90;;;;;;5117423;28;20055;-74
2023/09/01 05:27:25;;;;;;;3.70;2.50;;;12.50;99.90;;;;;;5099035;28;20019;-74
2023/09/01 05:29:50;;;;;;;5.07;2.30;;;12.60;99.90;;;;;;5116987;28;20023;-74
2023/09/01 05:32:16;;;;;;;4.45;2.63;;;12.60;99.90;;;;;;5117864;28;20106;-74
2023/09/01 05:34:42;;;;;;;4.65;2.28;;;12.60;99.90;;;;;;5117829;28;20552;-74
2023/09/01 05:37:11;;;;;;;3.78;2.42;;;12.60;99.90;;;;;;5117292;28;20433;-74
2023/09/01 05:39:37;;;;;;;3.97;2.65;;;12.60;99.90;;;;;;5117565;28;20024;-74
2023/09/01 05:42:03;;;;;;;5.50;2.92;;;12.70;99.90;;;;;;5108359;28;20035;-72
2023/09/01 05:44:30;;;;;;;7.53;3.45;;;12.80;99.90;;;;;;5095341;28;20032;-73
2023/09/01 05:46:56;;;;;;;5.55;3.78;;;12.70;99.90;;;;;;5076571;28;20059;-73
2023/09/01 05:49:25;;;;;;;4.95;3.30;;;12.80;99.90;;;;;;5095583;28;20024;-73
2023/09/01 05:51:51;;;;;;;4.40;3.30;;;12.90;99.90;;;;;;5099951;28;20023;-73
2023/09/01 05:54:20;;;;;;;6.70;4.07;;;12.90;99.90;;;;;;5116890;28;20035;-72
2023/09/01 05:56:46;;;;;;;4.28;3.00;;;12.90;99.90;;;;;;5116874;28;20082;-73
2023/09/01 05:59:12;;;;;;;4.97;2.97;;;13.00;99.90;;;;;;5117035;28;20487;-72
2023/09/01 06:01:39;;;;;;;4.55;3.13;;;13.00;99.90;;;;;;5082016;28;20047;-72
2023/09/01 06:04:05;;;;;;;4.18;3.10;;;13.00;99.90;;;;;;5116688;28;20023;-72
2023/09/01 06:06:35;;;;;;;4.47;2.53;;;13.10;99.90;;;;;;5098391;28;20027;-72
2023/09/01 06:09:05;;;;;;;4.57;3.40;;;13.10;99.90;;;;;;5116678;28;20012;-72
2023/09/01 06:11:32;;;;;;;4.53;3.50;;;13.20;99.90;;;;;;5117172;28;20024;-72
2023/09/01 06:13:58;;;;;;;4.45;2.80;;;13.20;99.90;;;;;;5098290;28;20115;-73
2023/09/01 06:16:25;;;;;;;8.30;3.22;;;13.20;99.90;;;;;;5116348;28;20024;-72
2023/09/01 06:18:51;;;;;;;4.45;2.97;;;13.30;99.90;;;;;;5116553;28;20399;-72
2023/09/01 06:21:17;;;;;;;3.75;2.80;;;13.40;99.90;;;;;;5116911;28;20464;-72
2023/09/01 06:23:44;;;;;;;3.20;2.60;;;13.40;99.90;;;;;;5098211;28;20061;-72
2023/09/01 06:26:14;;;;;;;4.38;3.17;;;13.40;99.90;;;;;;5077744;28;20077;-74
2023/09/01 06:28:40;;;;;;;4.28;2.88;;;13.40;99.90;;;;;;5096106;28;20097;-72
2023/09/01 06:31:09;;;;;;;4.47;3.20;;;13.40;99.90;;;;;;5095848;28;20143;-72
2023/09/01 06:33:35;;;;;;;5.57;3.97;;;13.40;99.90;;;;;;5077711;28;20024;-72
2023/09/01 06:36:01;;;;;;;5.30;3.15;;;13.50;99.90;;;;;;5096055;28;20028;-72
2023/09/01 06:38:26;;;;;;;4.03;2.75;;;13.50;99.90;;;;;;5096152;28;20028;-73
2023/09/01 06:40:52;;;;;;;6.70;3.08;;;13.60;99.90;;;;;;5095768;28;20032;-72
2023/09/01 06:43:17;;;;;;;6.35;4.03;;;13.60;99.90;;;;;;5077936;28;20061;-72
2023/09/01 06:45:43;;;;;;;6.40;3.78;;;13.60;99.90;;;;;;5096034;28;20036;-73
2023/09/01 06:48:09;;;;;;;4.90;3.25;;;13.70;99.90;;;;;;5096033;28;20020;-72
2023/09/01 06:50:36;;;;;;;5.10;3.40;;;13.80;99.90;;;;;;5095874;28;20021;-73
2023/09/01 06:53:02;;;;;;;7.38;4.18;;;13.90;99.90;;;;;;5095573;28;20020;-73
2023/09/01 06:55:28;;;;;;;5.53;3.50;;;14.00;99.90;;;;;;5077443;28;20035;-73
2023/09/01 06:57:53;;;;;;;6.72;3.35;;;14.00;99.90;;;;;;5077654;28;20115;-73
2023/09/01 07:00:19;;;;;;;4.38;3.20;;;14.10;99.90;;;;;;5095696;28;20032;-72
2023/09/01 07:02:45;;;;;;;4.82;2.95;;;14.20;99.90;;;;;;5095304;28;20035;-72
2023/09/01 07:05:10;;;;;;;4.47;3.13;;;14.20;99.90;;;;;;5101509;28;20058;-73
2023/09/01 07:07:36;;;;;;;4.65;3.20;;;14.20;99.90;;;;;;5114431;28;20023;-73
2023/09/01 07:10:03;;;;;;;6.78;3.88;;;14.30;99.90;;;;;;5115545;28;20031;-73
2023/09/01 07:12:29;;;;;;;5.38;3.47;;;14.30;99.90;;;;;;5115298;28;20077;-73
2023/09/01 07:14:54;;;;;;;6.25;3.15;;;14.30;99.90;;;;;;5115561;28;20023;-73
2023/09/01 07:17:21;;;;;;;5.95;3.30;;;14.40;99.90;;;;;;5097379;28;20032;-72
2023/09/01 07:19:47;;;;;;;4.78;3.28;;;14.40;99.90;;;;;;5115404;28;20030;-73
2023/09/01 07:22:13;;;;;;;5.13;3.33;;;14.50;99.90;;;;;;5115480;28;20103;-72
2023/09/01 07:24:39;;;;;;;4.70;3.10;;;14.50;99.90;;;;;;5115320;28;20034;-73
2023/09/01 07:27:08;;;;;;;6.18;3.53;;;14.60;99.90;;;;;;5115334;28;20020;-73
2023/09/01 07:29:34;;;;;;;5.85;2.97;;;14.70;99.90;;;;;;5114595;28;20483;-73
2023/09/01 07:31:59;;;;;;;4.88;3.58;;;14.80;99.90;;;;;;5115130;28;20062;-74
2023/09/01 07:34:26;;;;;;;4.78;3.45;;;14.90;99.90;;;;;;5096255;28;20024;-74
2023/09/01 07:36:52;;;;;;;5.63;3.53;;;14.90;99.90;;;;;;5115101;28;20027;-74
2023/09/01 07:39:17;;;;;;;4.28;3.40;;;14.90;99.90;;;;;;5114993;28;20089;-75
2023/09/01 07:41:43;;;;;;;5.07;3.58;;;14.90;99.90;;;;;;5096812;28;20039;-75
2023/09/01 07:44:09;;;;;;;5.20;3.33;;;14.90;99.90;;;;;;5096396;28;20055;-75
2023/09/01 07:46:34;;;;;;;5.03;3.47;;;15.00;99.90;;;;;;5096023;28;20088;-74
2023/09/01 07:49:02;;;;;;;6.60;3.10;;;15.10;99.90;;;;;;5114964;28;20027;-75
2023/09/01 07:51:27;;;;;;;9.20;3.53;;;15.20;99.90;;;;;;5113991;28;20408;-74
2023/09/01 07:53:54;;;;;;;4.03;3.13;;;15.20;99.90;;;;;;5114610;28;20040;-75
2023/09/01 07:56:21;;;;;;;4.15;3.20;;;15.30;99.90;;;;;;5114627;28;20027;-74
2023/09/01 07:58:46;;;;;;;6.97;3.53;;;15.40;99.90;;;;;;5096298;28;20024;-74
2023/09/01 08:01:12;;;;;;;4.55;3.17;;;15.40;99.90;;;;;;5114605;28;20038;-74
2023/09/01 08:03:38;;;;;;;6.72;3.28;;;15.40;99.90;;;;;;5114539;28;20492;-75
2023/09/01 08:06:04;;;;;;;4.22;3.10;;;15.40;99.90;;;;;;5117860;27;20055;-74
2023/09/01 08:08:30;;;;;;;6.22;3.05;;;15.50;99.90;;;;;;5114286;28;20057;-74
2023/09/01 08:10:56;;;;;;;4.93;3.20;;;15.50;99.90;;;;;;5096623;28;20529;-74
2023/09/01 08:13:22;;;;;;;5.20;3.10;;;15.60;99.90;;;;;;5114316;28;20111;-75
2023/09/01 08:15:48;;;;;;;4.70;3.20;;;15.70;99.90;;;;;;5128009;27;20510;-74
2023/09/01 08:18:13;;;;;;;5.47;3.50;;;15.80;99.90;;;;;;5135064;27;20023;-75
2023/09/01 08:20:40;;;;;;;5.57;3.40;;;15.90;99.90;;;;;;5123974;27;20548;-74
2023/09/01 08:23:06;;;;;;;5.43;3.00;;;16.00;99.90;;;;;;5095971;28;20023;-75
2023/09/01 08:25:32;;;;;;;4.60;3.17;;;16.20;99.90;;;;;;5114681;28;20103;-75
2023/09/01 08:27:58;;;;;;;5.18;3.50;;;16.30;99.90;;;;;;5127142;27;20023;-75
2023/09/01 08:30:24;;;;;;;5.47;3.00;;;16.50;99.90;;;;;;5114216;28;20028;-74
2023/09/01 08:32:50;;;;;;;4.85;3.05;;;16.60;99.90;;;;;;5114379;28;20435;-74
2023/09/01 08:35:16;;;;;;;4.40;2.97;;;16.80;99.90;;;;;;5114205;28;20024;-74
2023/09/01 08:37:42;;;;;;;4.65;2.83;;;16.80;99.90;;;;;;5114359;28;20031;-75
2023/09/01 08:40:11;;;;;;;4.80;2.83;;;16.90;99.90;;;;;;5113112;28;20023;-75
2023/09/01 08:42:47;;;;;;;4.45;2.67;;;16.90;99.90;;;;;;5114217;28;20042;-75
2023/09/01 08:45:17;;;;;;;5.30;2.95;;;17.00;99.90;;;;;;5114574;28;20024;-74
2023/09/01 08:47:45;;;;;;;3.75;2.40;;;17.20;99.90;;;;;;5114746;28;20012;-75
2023/09/01 08:50:13;;;;;;;3.78;2.47;;;17.30;99.90;;;;;;5113958;28;20027;-75
2023/09/01 08:52:42;;;;;;;4.60;2.58;;;17.40;99.90;;;;;;5095374;28;20031;-74
2023/09/01 08:55:07;;;;;;;5.90;2.70;;;17.50;99.90;;;;;;5078885;28;20412;-73
2023/09/01 08:57:33;;;;;;;3.80;2.53;;;17.50;99.90;;;;;;5113742;28;20020;-73
2023/09/01 08:59:59;;;;;;;3.13;2.25;;;17.70;99.90;;;;;;5113912;28;20107;-73
2023/09/01 09:02:25;;;;;;;5.57;2.65;;;17.80;99.90;;;;;;5095462;28;20023;-73
2023/09/01 09:04:50;;;;;;;3.83;2.78;;;17.80;99.90;;;;;;5113482;28;20026;-73
2023/09/01 09:07:18;;;;;;;6.20;2.97;;;17.90;99.90;;;;;;5113577;28;20032;-72
2023/09/01 09:09:57;;;;;;;3.90;2.28;;;17.90;99.90;;;;;;5113475;28;20031;-73
2023/09/01 09:12:33;;;;;;;4.10;2.42;;;18.00;99.90;;;;;;5095372;28;20051;-72
2023/09/01 09:14:59;;;;;;;8.20;2.50;;;18.10;99.90;;;;;;5097084;28;20023;-73
2023/09/01 09:17:45;;;;;;;4.40;2.42;;;18.30;99.90;;;;;;5113922;28;20046;-73
2023/09/01 09:20:12;;;;;;;4.80;2.55;;;18.50;99.90;;;;;;5113534;28;20072;-73
2023/09/01 09:22:59;;;;;;;3.58;2.30;;;18.60;99.90;;;;;;5113499;28;20024;-73
2023/09/01 09:25:31;;;;;;;4.00;2.53;;;18.80;99.90;;;;;;5113825;28;20019;-72
2023/09/01 09:28:13;;;;;;;3.70;2.40;;;18.80;99.90;;;;;;5113496;28;20039;-73
2023/09/01 09:30:52;;;;;;;4.68;2.78;;;18.80;99.90;;;;;;5095411;28;20402;-73
2023/09/01 09:33:26;;;;;;;6.20;2.58;;;18.90;99.90;;;;;;5078717;28;20438;-73
2023/09/01 09:35:52;;;;;;;4.35;2.75;;;19.10;99.90;;;;;;5113863;28;20081;-73
2023/09/01 09:38:18;;;;;;;3.33;2.40;;;19.20;99.90;;;;;;5113069;28;20032;-73
2023/09/01 09:41:00;;;;;;;4.00;2.22;;;19.20;99.90;;;;;;5113117;28;20124;-73
2023/09/01 09:43:26;;;;;;;4.47;2.80;;;19.30;99.90;;;;;;5113980;28;20372;-73
2023/09/01 09:45:53;;;;;;;4.30;2.80;;;19.30;99.90;;;;;;5113286;28;20028;-73
2023/09/01 09:48:19;;;;;;;6.93;2.70;;;19.40;99.90;;;;;;5095180;28;20023;-72
2023/09/01 09:50:50;;;;;;;5.65;2.88;;;19.50;99.90;;;;;;5113578;28;20036;-73
2023/09/01 09:53:20;;;;;;;5.20;3.13;;;19.60;99.90;;;;;;5116987;28;20023;-73
2023/09/01 09:55:48;;;;;;;4.05;3.13;;;19.70;99.90;;;;;;5116678;28;20031;-73
2023/09/01 09:58:20;;;;;;;4.38;3.17;;;19.90;99.90;;;;;;5116915;28;20031;-73
2023/09/01 10:01:02;;;;;;;3.78;2.92;;;20.00;99.90;;;;;;5116115;28;20464;-73
2023/09/01 10:03:31;;;;;;;4.50;3.15;;;20.10;99.90;;;;;;5115672;28;20402;-73
2023/09/01 10:05:58;;;;;;;4.05;3.17;;;20.10;99.90;;;;;;5115895;28;20016;-73
2023/09/01 10:08:24;;;;;;;5.55;3.45;;;20.20;99.90;;;;;;5117017;28;20031;-73
2023/09/01 10:10:50;;;;;;;5.10;3.55;;;20.40;99.90;;;;;;5098363;28;20073;-73
2023/09/01 10:13:16;;;;;;;5.38;3.80;;;20.40;99.90;;;;;;5098347;28;20055;-72
2023/09/01 10:15:42;;;;;;;4.40;3.60;;;20.60;99.90;;;;;;5098676;28;20080;-72
2023/09/01 10:18:09;;;;;;;4.50;3.50;;;20.70;99.90;;;;;;5116432;28;20562;-72
2023/09/01 10:20:37;;;;;;;5.85;3.40;;;20.80;99.90;;;;;;5116414;28;20476;-73
2023/09/01 10:23:04;;;;;;;5.10;2.92;;;20.90;99.90;;;;;;5116336;28;20123;-72
2023/09/01 10:25:30;;;;;;;3.10;2.50;;;21.00;99.90;;;;;;5116272;28;20090;-73
2023/09/01 10:28:03;;;;;;;4.20;2.47;;;21.10;99.90;;;;;;5116287;28;20012;-73
2023/09/01 10:30:31;;;;;;;3.53;2.40;;;21.30;99.90;;;;;;5116435;28;20073;-73
2023/09/01 10:33:10;;;;;;;5.53;2.15;;;21.30;99.90;;;;;;5116198;28;20103;-72
2023/09/01 10:35:39;;;;;;;3.88;2.15;;;21.50;99.90;;;;;;5116114;28;20024;-73
2023/09/01 10:38:17;;;;;;;2.88;2.00;;;21.70;99.90;;;;;;5116099;28;20015;-72
2023/09/01 10:40:47;;;;;;;2.65;1.98;;;21.70;99.90;;;;;;5116533;28;20020;-73
2023/09/01 10:43:34;;;;;;;3.03;2.00;;;21.80;99.90;;;;;;5116163;28;20024;-72
2023/09/01 10:46:14;;;;;;;2.38;1.63;;;21.90;99.90;;;;;;5098477;28;20073;-72
2023/09/01 10:49:00;;;;;;;2.78;1.73;;;22.00;99.90;;;;;;5115942;28;20065;-73
2023/09/01 10:51:40;;;;;;;3.10;1.98;;;22.00;99.90;;;;;;5115735;28;20027;-73
2023/09/01 10:54:14;;;;;;;2.63;1.50;;;22.20;99.90;;;;;;5116003;28;20092;-73
2023/09/01 10:57:04;;;;;;;2.72;1.77;;;22.30;99.90;;;;;;5116248;28;20073;-73
2023/09/01 10:59:36;;;;;;;5.13;2.28;;;22.40;99.90;;;;;;5116181;28;20020;-73
2023/09/01 11:02:28;;;;;;;4.60;1.88;;;22.50;99.90;;;;;;5115345;28;20106;-73
2023/09/01 11:04:53;;;;;;;2.35;1.85;;;22.60;99.90;;;;;;5086506;28;20043;-73
2023/09/01 11:07:19;;;;;;;3.53;1.90;;;22.80;99.90;;;;;;5096824;28;20045;-73
2023/09/01 11:09:49;;;;;;;3.70;1.90;;;22.80;99.90;;;;;;5097762;28;20076;-73
2023/09/01 11:12:15;;;;;;;2.95;1.88;;;22.90;99.90;;;;;;5115648;28;20019;-73
2023/09/01 11:14:57;;;;;;;3.10;1.73;;;23.00;99.90;;;;;;5115575;28;20024;-73
2023/09/01 11:17:51;;;;;;;4.65;1.42;;;23.10;99.90;;;;;;5115684;28;20023;-72
2023/09/01 11:20:19;;;;;;;3.83;1.50;;;23.20;99.90;;;;;;5093696;28;20050;-73
2023/09/01 11:22:46;;;;;;;2.80;1.30;;;23.20;99.80;;;;;;5115249;28;20480;-72
2023/09/01 11:25:16;;;;;;;2.33;1.38;;;23.40;99.90;;;;;;5097195;28;20052;-73
2023/09/01 11:27:46;;;;;;;2.50;1.40;;;23.40;99.00;;;;;;5115432;28;20023;-73
2023/09/01 11:30:13;;;;;;;2.00;1.15;;;23.40;97.90;;;;;;5114935;28;20027;-73
2023/09/01 11:32:38;;;;;;;2.08;1.42;;;23.50;96.80;;;;;;5079993;28;20089;-73
2023/09/01 11:35:05;;;;;;;2.35;1.42;;;23.50;96.50;;;;;;5114982;28;20028;-73
2023/09/01 11:37:39;;;;;;;2.55;1.20;;;23.60;96.80;;;;;;5115280;28;20031;-73
2023/09/01 11:40:08;;;;;;;2.03;1.25;;;23.70;95.10;;;;;;5097123;28;20031;-72
2023/09/01 11:42:36;;;;;;;4.28;1.55;;;23.80;95.30;;;;;;5115137;28;20020;-73
2023/09/01 11:45:09;;;;;;;2.47;1.42;;;23.80;95.60;;;;;;5115746;28;20094;-73
2023/09/01 11:47:35;;;;;;;3.20;1.20;;;23.80;95.10;;;;;;5115697;28;20020;-73
2023/09/01 11:50:02;;;;;;;1.80;1.00;;;23.90;95.30;;;;;;5114307;28;20468;-73
2023/09/01 11:52:27;;;;;;;2.08;1.30;;;24.00;93.90;;;;;;5114613;28;20129;-73
2023/09/01 11:54:54;;;;;;;2.13;1.30;;;24.00;93.40;;;;;;5114054;28;20031;-75
2023/09/01 11:57:20;;;;;;;4.28;1.20;;;24.00;93.60;;;;;;5114090;28;20080;-73
2023/09/01 11:59:47;;;;;;;2.40;1.30;;;24.10;93.50;;;;;;5115213;28;20403;-73
2023/09/01 12:02:18;;;;;;;2.30;1.10;;;24.20;93.60;;;;;;5114963;27;20475;-73
2023/09/01 12:04:46;;;;;;;;;;;24.40;94.80;;;;;;5124271;27;20028;-73
2023/09/01 12:07:31;;;;;;;1.65;1.10;;;24.50;94.40;;;;;;5114140;28;20326;-73
2023/09/01 12:09:57;;;;;;;2.22;1.20;;;24.70;92.50;;;;;;5095975;28;20122;-73
2023/09/01 12:12:22;;;;;;;2.20;1.30;;;24.70;92.50;;;;;;5113538;28;20099;-73
2023/09/01 12:14:49;;;;;;;2.50;1.23;;;24.70;92.80;;;;;;5113897;28;20032;-73
2023/09/01 12:17:19;;;;;;;2.67;1.25;;;24.70;91.00;;;;;;5113326;28;20503;-73
2023/09/01 12:19:50;;;;;;;3.30;1.23;;;24.70;92.10;;;;;;5095001;28;20028;-74
2023/09/01 12:22:17;;;;;;;2.05;1.33;;;24.60;93.00;;;;;;5114107;28;20034;-73
2023/09/01 12:25:09;;;;;;;2.10;1.20;;;24.70;91.70;;;;;;5114332;28;20034;-73
2023/09/01 12:27:35;;;;;;;2.30;1.30;;;24.60;89.80;;;;;;5111693;27;20035;-73
2023/09/01 12:30:01;;;;;;;2.83;1.30;;;24.60;90.10;;;;;;5109519;28;20020;-73
2023/09/01 12:32:28;;;;;;;2.38;1.40;;;24.60;90.50;;;;;;5114022;28;20030;-73
2023/09/01 12:34:53;;;;;;;1.85;1.10;;;24.60;91.40;;;;;;5113707;28;20540;-74
2023/09/01 12:37:19;;;;;;;2.03;1.30;;;24.60;92.70;;;;;;5114212;28;20039;-73
2023/09/01 12:39:45;;;;;;;2.58;1.42;;;24.80;92.80;;;;;;5113878;28;20028;-73
2023/09/01 12:42:11;;;;;;;2.58;1.40;;;25.00;91.90;;;;;;5114444;28;20153;-73
2023/09/01 12:44:37;;;;;;;2.67;1.42;;;25.00;90.00;;;;;;5113626;28;20507;-73
2023/09/01 12:47:03;;;;;;;3.42;1.30;;;25.00;89.00;;;;;;5114092;28;20417;-73
2023/09/01 12:49:29;;;;;;;2.05;1.10;;;25.00;90.60;;;;;;5113890;28;20022;-73
2023/09/01 12:51:55;;;;;;;2.38;1.42;;;25.00;90.20;;;;;;5117952;28;20020;-73